Oceana Nas /Apollo Soucek Field/ Station
KNTU : now visible

Airfield :











YOU CAN JOIN US ON...

 
LOGIN :

Register | Disclaimer

   EN    FR    IT 

 









Legend :    VFR   Marginal VFR   IFR   Intensive IFR   Very Intensive IFR
Visi :
Ceiling :
>= 8 km
>= 3000ft
5 to 8 km
1000 to 3000 ft
1500m to 5 km
500 to 1000 ft
800 to 1500m
200 to 500 ft
< 800m
< 200 ft
Symbols :   Thunderstorms  Fog  Heavy snow  Heavy precipitations  Wind > 20 kt






- Airport Elevation : 23 ft


KNTU - Oceana Nas /Apollo Soucek Field/ Station

CURRENT METAR :
  • 051856Z 29013G24KT 10SM FEW050 11/M04 A2998 RMK AO2 SLP156 T01061039

EXPIRED METARs :
  • 051756Z 32014G21KT 10SM FEW050 11/M04 A2999 RMK AO2 SLP156 T01061044 10106 20056 58003
  • 051656Z 28015G20KT 10SM BKN055 10/M04 A2999 RMK AO2 SLP158 T01001039

TAF TAF KNTU
Valid from the 05 at 15:00 until the 06 at 15:00 UTC


0515/0615 33016G25KT 9999 FEW030 SCT250 540009 540905 QNH2995INS
FM051900 33012G22KT 9999 FEW250 500000 QNH2997INS
FM060200 VRB06KT 9999 SKC QNH3008INS T10/0519Z T03/0609Z FN20008



MET'MAP, your aeronautical weather chart ! - Copyright ORBIFLY December 2007 - Disclaimer

ORBIFLY MET'MAP TEAM :

Programming & Development : Alexandra Zaïnal
Concept & original design : Baudouin d'Aumeries
Assistance for programming : Marc-Olivier Méhu
Technical & hardware support : Manuel Goepfert

Contact : metmap@orbifly.com




SOURCES & CREDITS :

   NOAA       Earth
Advisory